YHID

Details ICAO YHID (HID)
Name Horn Island
Region Australia
Timezone Australia/Brisbane (UTC+10.0)
Plans Departing 221
Arriving 230
Stats Elevation 43 ft / 13 m (AMSL)
Location -10.585700° 142.290000°
Runways 2
Magnetic Variation 4.790° E
Sunrise 2020-01-23 20:25:04 UTC / 2020-01-24 06:25:04 Local
Sunset 2020-01-24 09:02:32 UTC / 2020-01-24 19:02:32 Local
Advertisement - Login to hide

Runways

ID Width Length Bearing (true/mag) Surface Threshold Overrun Markings Lighting
08 102 ft / 31 m 4,565 ft / 1,392 m 84.80° / 80.01° ASPHALT 0 ft / 0 m 66 ft / 20 m APP
14 75 ft / 23 m 4,082 ft / 1,244 m 139.90° / 135.11° ASPHALT 0 ft / 0 m 190 ft / 58 m VISUAL
26 102 ft / 31 m 4,565 ft / 1,392 m 264.80° / 260.01° ASPHALT 0 ft / 0 m 200 ft / 61 m APP
32 75 ft / 23 m 4,082 ft / 1,244 m 319.90° / 315.11° ASPHALT 0 ft / 0 m 0 ft / 0 m VISUAL

Map

Weather


0- 5 10 15 20 25 30 35+ Temperature / °C

Clouds and Precipitation
Forecast for 2020-01-24 06:00 UTC. Updated 4 hours ago

Ground ~20,000 ft ~40,000 ft Winds

METAR

YHID 240630Z AUTO 30008KT 9999 // NCD 32/24 Q1007

TAF

TAF YHID 240521Z 2406/2506 28008KT 9999 SCT025

Frequencies

Unicom 126.50 MHz Horn Island MULT
Unicom 120.30 MHz BRISBANE CENTRE MULT
Unicom 119.60 MHz ACTIVATE LIGHTS ONLY MULT
Warning: Do not use this data for real-world aviation or navigation. No guarantee of current accuracy is given.